sensor_id;sensor_type;location;lat;lon;timestamp;P1;durP1;ratioP1;P2;durP2;ratioP2
40707;SDS011;26392;42.696;23.350;2022-11-15T00:00:29;168.65;;;65.93;;
40707;SDS011;26392;42.696;23.350;2022-11-15T00:02:55;177.48;;;62.20;;
40707;SDS011;26392;42.696;23.350;2022-11-15T00:05:20;156.57;;;59.20;;
40707;SDS011;26392;42.696;23.350;2022-11-15T00:07:46;158.25;;;57.45;;
40707;SDS011;26392;42.696;23.350;2022-11-15T00:10:11;132.25;;;50.38;;
40707;SDS011;26392;42.696;23.350;2022-11-15T00:12:37;149.73;;;54.90;;
40707;SDS011;26392;42.696;23.350;2022-11-15T00:15:02;146.73;;;53.33;;
40707;SDS011;26392;42.696;23.350;2022-11-15T00:17:28;123.38;;;49.03;;
40707;SDS011;26392;42.696;23.350;2022-11-15T00:19:54;113.63;;;46.75;;
40707;SDS011;26392;42.696;23.350;2022-11-15T00:22:20;135.55;;;51.17;;
40707;SDS011;26392;42.696;23.350;2022-11-15T00:24:45;131.65;;;50.15;;
40707;SDS011;26392;42.696;23.350;2022-11-15T00:27:10;131.88;;;49.50;;
40707;SDS011;26392;42.696;23.350;2022-11-15T00:29:36;108.50;;;43.95;;
40707;SDS011;26392;42.696;23.350;2022-11-15T00:32:03;124.85;;;47.85;;
40707;SDS011;26392;42.696;23.350;2022-11-15T00:34:30;120.05;;;43.83;;
40707;SDS011;26392;42.696;23.350;2022-11-15T00:36:55;111.97;;;42.05;;
40707;SDS011;26392;42.696;23.350;2022-11-15T00:39:21;118.60;;;43.05;;
40707;SDS011;26392;42.696;23.350;2022-11-15T00:41:46;111.05;;;41.60;;
40707;SDS011;26392;42.696;23.350;2022-11-15T00:44:11;118.57;;;43.50;;
40707;SDS011;26392;42.696;23.350;2022-11-15T00:46:37;130.50;;;44.92;;
40707;SDS011;26392;42.696;23.350;2022-11-15T00:49:02;117.40;;;44.40;;
40707;SDS011;26392;42.696;23.350;2022-11-15T00:51:27;120.00;;;42.83;;
40707;SDS011;26392;42.696;23.350;2022-11-15T00:53:53;109.18;;;42.65;;
40707;SDS011;26392;42.696;23.350;2022-11-15T00:56:18;114.38;;;43.88;;
40707;SDS011;26392;42.696;23.350;2022-11-15T00:58:44;133.32;;;46.67;;
40707;SDS011;26392;42.696;23.350;2022-11-15T01:01:10;124.65;;;44.78;;
40707;SDS011;26392;42.696;23.350;2022-11-15T01:03:38;116.60;;;43.90;;
40707;SDS011;26392;42.696;23.350;2022-11-15T01:06:05;122.13;;;44.63;;
40707;SDS011;26392;42.696;23.350;2022-11-15T01:08:31;117.32;;;45.63;;
40707;SDS011;26392;42.696;23.350;2022-11-15T01:11:03;121.97;;;44.13;;
40707;SDS011;26392;42.696;23.350;2022-11-15T01:13:31;115.88;;;43.85;;
40707;SDS011;26392;42.696;23.350;2022-11-15T01:15:58;115.88;;;41.58;;
40707;SDS011;26392;42.696;23.350;2022-11-15T01:18:24;103.68;;;41.97;;
40707;SDS011;26392;42.696;23.350;2022-11-15T01:20:49;121.07;;;43.72;;
40707;SDS011;26392;42.696;23.350;2022-11-15T01:23:14;112.68;;;43.42;;
40707;SDS011;26392;42.696;23.350;2022-11-15T01:25:40;112.35;;;43.85;;
40707;SDS011;26392;42.696;23.350;2022-11-15T01:28:05;125.10;;;44.38;;
40707;SDS011;26392;42.696;23.350;2022-11-15T01:30:31;128.90;;;45.40;;
40707;SDS011;26392;42.696;23.350;2022-11-15T01:32:56;119.53;;;45.05;;
40707;SDS011;26392;42.696;23.350;2022-11-15T01:35:21;121.70;;;43.42;;
40707;SDS011;26392;42.696;23.350;2022-11-15T01:37:47;119.85;;;43.63;;
40707;SDS011;26392;42.696;23.350;2022-11-15T01:40:12;112.78;;;42.03;;
40707;SDS011;26392;42.696;23.350;2022-11-15T01:42:38;120.05;;;43.55;;
40707;SDS011;26392;42.696;23.350;2022-11-15T01:45:03;124.38;;;42.58;;
40707;SDS011;26392;42.696;23.350;2022-11-15T01:47:30;119.60;;;43.20;;
40707;SDS011;26392;42.696;23.350;2022-11-15T01:50:12;136.20;;;46.53;;
40707;SDS011;26392;42.696;23.350;2022-11-15T01:52:41;114.03;;;42.00;;
40707;SDS011;26392;42.696;23.350;2022-11-15T01:57:38;119.47;;;43.55;;
40707;SDS011;26392;42.696;23.350;2022-11-15T02:00:06;131.45;;;45.53;;
40707;SDS011;26392;42.696;23.350;2022-11-15T02:02:32;117.32;;;41.83;;
40707;SDS011;26392;42.696;23.350;2022-11-15T02:05:00;122.40;;;43.80;;
40707;SDS011;26392;42.696;23.350;2022-11-15T02:07:25;121.63;;;43.42;;
40707;SDS011;26392;42.696;23.350;2022-11-15T02:09:52;122.55;;;44.38;;
40707;SDS011;26392;42.696;23.350;2022-11-15T02:12:19;116.75;;;43.50;;
40707;SDS011;26392;42.696;23.350;2022-11-15T02:14:48;121.32;;;44.05;;
40707;SDS011;26392;42.696;23.350;2022-11-15T02:23:04;113.43;;;44.17;;
40707;SDS011;26392;42.696;23.350;2022-11-15T02:29:04;129.95;;;50.25;;
40707;SDS011;26392;42.696;23.350;2022-11-15T02:37:06;157.75;;;56.03;;
40707;SDS011;26392;42.696;23.350;2022-11-15T02:39:56;146.82;;;54.35;;
40707;SDS011;26392;42.696;23.350;2022-11-15T02:42:25;168.95;;;59.65;;
40707;SDS011;26392;42.696;23.350;2022-11-15T02:45:15;172.15;;;59.22;;
40707;SDS011;26392;42.696;23.350;2022-11-15T02:47:46;145.18;;;53.05;;
40707;SDS011;26392;42.696;23.350;2022-11-15T02:50:18;160.98;;;54.65;;
40707;SDS011;26392;42.696;23.350;2022-11-15T02:52:50;172.35;;;58.30;;
40707;SDS011;26392;42.696;23.350;2022-11-15T02:55:32;162.20;;;56.92;;
40707;SDS011;26392;42.696;23.350;2022-11-15T02:58:04;163.13;;;57.83;;
40707;SDS011;26392;42.696;23.350;2022-11-15T03:00:34;161.75;;;55.58;;
40707;SDS011;26392;42.696;23.350;2022-11-15T03:06:03;177.20;;;56.10;;
40707;SDS011;26392;42.696;23.350;2022-11-15T03:08:32;170.43;;;52.85;;
40707;SDS011;26392;42.696;23.350;2022-11-15T03:11:17;132.38;;;45.03;;
40707;SDS011;26392;42.696;23.350;2022-11-15T03:13:52;163.63;;;46.50;;
40707;SDS011;26392;42.696;23.350;2022-11-15T03:16:36;151.13;;;45.97;;
40707;SDS011;26392;42.696;23.350;2022-11-15T03:19:07;154.77;;;48.83;;
40707;SDS011;26392;42.696;23.350;2022-11-15T03:21:39;158.05;;;48.17;;
40707;SDS011;26392;42.696;23.350;2022-11-15T03:24:05;158.45;;;45.13;;
40707;SDS011;26392;42.696;23.350;2022-11-15T03:26:33;155.52;;;46.15;;
40707;SDS011;26392;42.696;23.350;2022-11-15T03:29:09;136.05;;;44.38;;
40707;SDS011;26392;42.696;23.350;2022-11-15T03:31:41;142.60;;;48.28;;
40707;SDS011;26392;42.696;23.350;2022-11-15T03:34:14;148.23;;;45.95;;
40707;SDS011;26392;42.696;23.350;2022-11-15T03:36:45;144.77;;;45.50;;
40707;SDS011;26392;42.696;23.350;2022-11-15T03:39:13;165.30;;;50.67;;
40707;SDS011;26392;42.696;23.350;2022-11-15T03:47:08;155.90;;;47.67;;
40707;SDS011;26392;42.696;23.350;2022-11-15T03:49:39;130.18;;;44.72;;
40707;SDS011;26392;42.696;23.350;2022-11-15T03:52:09;155.52;;;49.53;;
40707;SDS011;26392;42.696;23.350;2022-11-15T03:54:36;172.60;;;54.22;;
40707;SDS011;26392;42.696;23.350;2022-11-15T03:57:01;166.82;;;54.30;;
40707;SDS011;26392;42.696;23.350;2022-11-15T03:59:26;164.10;;;52.80;;
40707;SDS011;26392;42.696;23.350;2022-11-15T04:01:52;173.27;;;52.45;;
40707;SDS011;26392;42.696;23.350;2022-11-15T04:04:17;170.13;;;52.53;;
40707;SDS011;26392;42.696;23.350;2022-11-15T04:06:43;168.60;;;52.55;;
40707;SDS011;26392;42.696;23.350;2022-11-15T04:09:08;157.93;;;50.85;;
40707;SDS011;26392;42.696;23.350;2022-11-15T04:11:33;185.63;;;54.67;;
40707;SDS011;26392;42.696;23.350;2022-11-15T04:13:59;171.57;;;53.88;;
40707;SDS011;26392;42.696;23.350;2022-11-15T04:16:24;162.50;;;53.88;;
40707;SDS011;26392;42.696;23.350;2022-11-15T04:18:50;167.52;;;53.25;;
40707;SDS011;26392;42.696;23.350;2022-11-15T04:21:35;170.35;;;52.45;;
40707;SDS011;26392;42.696;23.350;2022-11-15T04:24:19;134.50;;;48.17;;
40707;SDS011;26392;42.696;23.350;2022-11-15T04:26:44;141.52;;;49.65;;
40707;SDS011;26392;42.696;23.350;2022-11-15T04:29:10;142.15;;;51.22;;
40707;SDS011;26392;42.696;23.350;2022-11-15T04:31:53;125.70;;;46.83;;
40707;SDS011;26392;42.696;23.350;2022-11-15T04:34:19;120.70;;;42.90;;
40707;SDS011;26392;42.696;23.350;2022-11-15T04:36:44;126.32;;;45.15;;
40707;SDS011;26392;42.696;23.350;2022-11-15T04:39:28;128.68;;;45.20;;
40707;SDS011;26392;42.696;23.350;2022-11-15T04:41:53;127.10;;;46.33;;
40707;SDS011;26392;42.696;23.350;2022-11-15T04:44:19;117.72;;;46.67;;
40707;SDS011;26392;42.696;23.350;2022-11-15T04:46:44;123.22;;;44.83;;
40707;SDS011;26392;42.696;23.350;2022-11-15T04:49:09;116.97;;;42.55;;
40707;SDS011;26392;42.696;23.350;2022-11-15T04:51:35;119.70;;;43.15;;
40707;SDS011;26392;42.696;23.350;2022-11-15T04:54:00;102.72;;;40.78;;
40707;SDS011;26392;42.696;23.350;2022-11-15T04:56:26;109.97;;;42.80;;
40707;SDS011;26392;42.696;23.350;2022-11-15T04:58:51;101.88;;;39.42;;
40707;SDS011;26392;42.696;23.350;2022-11-15T05:01:16;102.97;;;40.78;;
40707;SDS011;26392;42.696;23.350;2022-11-15T05:03:42;113.65;;;41.08;;
40707;SDS011;26392;42.696;23.350;2022-11-15T05:06:27;93.15;;;39.33;;
40707;SDS011;26392;42.696;23.350;2022-11-15T05:08:53;104.18;;;40.22;;
40707;SDS011;26392;42.696;23.350;2022-11-15T05:11:19;118.32;;;41.83;;
40707;SDS011;26392;42.696;23.350;2022-11-15T05:13:45;108.82;;;41.40;;
40707;SDS011;26392;42.696;23.350;2022-11-15T05:16:11;114.53;;;44.08;;
40707;SDS011;26392;42.696;23.350;2022-11-15T05:18:36;118.03;;;44.53;;
40707;SDS011;26392;42.696;23.350;2022-11-15T05:21:05;125.75;;;44.42;;
40707;SDS011;26392;42.696;23.350;2022-11-15T05:23:32;125.80;;;46.65;;
40707;SDS011;26392;42.696;23.350;2022-11-15T05:26:01;125.35;;;46.83;;
40707;SDS011;26392;42.696;23.350;2022-11-15T05:28:28;117.13;;;48.08;;
40707;SDS011;26392;42.696;23.350;2022-11-15T05:30:59;132.38;;;46.90;;
40707;SDS011;26392;42.696;23.350;2022-11-15T05:33:29;124.85;;;43.97;;
40707;SDS011;26392;42.696;23.350;2022-11-15T05:35:57;117.30;;;45.13;;
40707;SDS011;26392;42.696;23.350;2022-11-15T05:38:27;121.35;;;43.90;;
40707;SDS011;26392;42.696;23.350;2022-11-15T05:40:53;125.65;;;44.40;;
40707;SDS011;26392;42.696;23.350;2022-11-15T05:43:19;107.35;;;40.35;;
40707;SDS011;26392;42.696;23.350;2022-11-15T05:45:45;103.53;;;41.47;;
40707;SDS011;26392;42.696;23.350;2022-11-15T05:48:10;117.63;;;44.13;;
40707;SDS011;26392;42.696;23.350;2022-11-15T05:50:37;99.93;;;39.92;;
40707;SDS011;26392;42.696;23.350;2022-11-15T05:53:06;93.68;;;39.58;;
40707;SDS011;26392;42.696;23.350;2022-11-15T05:55:32;98.53;;;40.50;;
40707;SDS011;26392;42.696;23.350;2022-11-15T05:57:57;101.38;;;40.17;;
40707;SDS011;26392;42.696;23.350;2022-11-15T06:00:23;101.47;;;38.47;;
40707;SDS011;26392;42.696;23.350;2022-11-15T06:02:48;94.70;;;39.70;;
40707;SDS011;26392;42.696;23.350;2022-11-15T06:05:14;89.97;;;34.90;;
40707;SDS011;26392;42.696;23.350;2022-11-15T06:07:39;96.82;;;35.63;;
40707;SDS011;26392;42.696;23.350;2022-11-15T06:10:05;94.03;;;35.47;;
40707;SDS011;26392;42.696;23.350;2022-11-15T06:12:30;96.88;;;34.53;;
40707;SDS011;26392;42.696;23.350;2022-11-15T06:14:56;89.50;;;33.25;;
40707;SDS011;26392;42.696;23.350;2022-11-15T06:17:21;90.05;;;33.15;;
40707;SDS011;26392;42.696;23.350;2022-11-15T06:19:47;81.63;;;29.75;;
40707;SDS011;26392;42.696;23.350;2022-11-15T06:22:12;73.72;;;26.65;;
40707;SDS011;26392;42.696;23.350;2022-11-15T06:24:37;74.90;;;26.92;;
40707;SDS011;26392;42.696;23.350;2022-11-15T06:27:03;78.82;;;25.80;;
40707;SDS011;26392;42.696;23.350;2022-11-15T06:29:28;75.28;;;26.25;;
40707;SDS011;26392;42.696;23.350;2022-11-15T06:31:53;75.35;;;27.40;;
40707;SDS011;26392;42.696;23.350;2022-11-15T06:34:19;83.30;;;27.90;;
40707;SDS011;26392;42.696;23.350;2022-11-15T06:36:45;77.32;;;26.17;;
40707;SDS011;26392;42.696;23.350;2022-11-15T06:39:11;76.25;;;26.23;;
40707;SDS011;26392;42.696;23.350;2022-11-15T06:41:36;76.35;;;27.10;;
40707;SDS011;26392;42.696;23.350;2022-11-15T06:44:02;73.72;;;26.08;;
40707;SDS011;26392;42.696;23.350;2022-11-15T06:46:28;72.38;;;25.15;;
40707;SDS011;26392;42.696;23.350;2022-11-15T06:48:53;72.65;;;25.35;;
40707;SDS011;26392;42.696;23.350;2022-11-15T06:51:19;77.82;;;24.52;;
40707;SDS011;26392;42.696;23.350;2022-11-15T06:53:45;81.20;;;25.85;;
40707;SDS011;26392;42.696;23.350;2022-11-15T06:56:10;83.18;;;27.90;;
40707;SDS011;26392;42.696;23.350;2022-11-15T06:58:36;93.18;;;27.70;;
40707;SDS011;26392;42.696;23.350;2022-11-15T07:01:06;84.50;;;26.17;;
40707;SDS011;26392;42.696;23.350;2022-11-15T07:06:03;69.30;;;23.95;;
40707;SDS011;26392;42.696;23.350;2022-11-15T07:08:28;62.72;;;23.30;;
40707;SDS011;26392;42.696;23.350;2022-11-15T07:10:54;57.45;;;22.05;;
40707;SDS011;26392;42.696;23.350;2022-11-15T07:13:26;69.07;;;23.73;;
40707;SDS011;26392;42.696;23.350;2022-11-15T07:15:53;72.28;;;25.30;;
40707;SDS011;26392;42.696;23.350;2022-11-15T07:18:18;64.25;;;23.52;;
40707;SDS011;26392;42.696;23.350;2022-11-15T07:20:44;65.55;;;22.80;;
40707;SDS011;26392;42.696;23.350;2022-11-15T07:23:09;58.22;;;21.65;;
40707;SDS011;26392;42.696;23.350;2022-11-15T07:25:34;59.00;;;22.73;;
40707;SDS011;26392;42.696;23.350;2022-11-15T07:28:00;61.10;;;21.00;;
40707;SDS011;26392;42.696;23.350;2022-11-15T07:30:27;51.42;;;19.98;;
40707;SDS011;26392;42.696;23.350;2022-11-15T07:32:56;64.53;;;22.25;;
40707;SDS011;26392;42.696;23.350;2022-11-15T07:35:23;58.63;;;20.63;;
40707;SDS011;26392;42.696;23.350;2022-11-15T07:37:56;55.17;;;21.02;;
40707;SDS011;26392;42.696;23.350;2022-11-15T07:40:30;60.38;;;22.13;;
40707;SDS011;26392;42.696;23.350;2022-11-15T07:43:03;72.32;;;25.88;;
40707;SDS011;26392;42.696;23.350;2022-11-15T07:45:30;77.55;;;25.35;;
40707;SDS011;26392;42.696;23.350;2022-11-15T07:47:58;66.43;;;25.50;;
40707;SDS011;26392;42.696;23.350;2022-11-15T07:50:24;70.88;;;27.52;;
40707;SDS011;26392;42.696;23.350;2022-11-15T07:52:55;78.88;;;27.40;;
40707;SDS011;26392;42.696;23.350;2022-11-15T07:55:22;77.70;;;28.42;;
40707;SDS011;26392;42.696;23.350;2022-11-15T07:57:48;73.20;;;25.48;;
40707;SDS011;26392;42.696;23.350;2022-11-15T08:00:14;77.10;;;26.50;;
40707;SDS011;26392;42.696;23.350;2022-11-15T08:02:40;70.03;;;24.83;;
40707;SDS011;26392;42.696;23.350;2022-11-15T08:05:06;68.05;;;26.83;;
40707;SDS011;26392;42.696;23.350;2022-11-15T08:07:31;74.78;;;26.15;;
40707;SDS011;26392;42.696;23.350;2022-11-15T08:09:57;71.72;;;27.02;;
40707;SDS011;26392;42.696;23.350;2022-11-15T08:12:23;72.22;;;27.15;;
40707;SDS011;26392;42.696;23.350;2022-11-15T08:14:49;77.97;;;27.77;;
40707;SDS011;26392;42.696;23.350;2022-11-15T08:17:14;76.63;;;26.98;;
40707;SDS011;26392;42.696;23.350;2022-11-15T08:19:40;69.32;;;27.98;;
40707;SDS011;26392;42.696;23.350;2022-11-15T08:22:05;74.05;;;28.52;;
40707;SDS011;26392;42.696;23.350;2022-11-15T08:24:31;77.85;;;29.05;;
40707;SDS011;26392;42.696;23.350;2022-11-15T08:26:57;87.72;;;28.55;;
40707;SDS011;26392;42.696;23.350;2022-11-15T08:29:22;84.28;;;31.40;;
40707;SDS011;26392;42.696;23.350;2022-11-15T08:31:47;77.20;;;29.73;;
40707;SDS011;26392;42.696;23.350;2022-11-15T08:34:13;80.68;;;28.25;;
40707;SDS011;26392;42.696;23.350;2022-11-15T08:36:38;72.07;;;27.45;;
40707;SDS011;26392;42.696;23.350;2022-11-15T08:39:04;75.70;;;27.55;;
40707;SDS011;26392;42.696;23.350;2022-11-15T08:41:31;78.80;;;28.15;;
40707;SDS011;26392;42.696;23.350;2022-11-15T08:43:58;70.82;;;27.25;;
40707;SDS011;26392;42.696;23.350;2022-11-15T08:46:24;81.10;;;29.88;;
40707;SDS011;26392;42.696;23.350;2022-11-15T08:48:50;94.85;;;32.40;;
40707;SDS011;26392;42.696;23.350;2022-11-15T08:51:15;85.65;;;32.20;;
40707;SDS011;26392;42.696;23.350;2022-11-15T08:53:41;93.85;;;31.42;;
40707;SDS011;26392;42.696;23.350;2022-11-15T08:56:07;93.90;;;34.40;;
40707;SDS011;26392;42.696;23.350;2022-11-15T08:58:34;98.32;;;33.30;;
40707;SDS011;26392;42.696;23.350;2022-11-15T09:00:59;84.97;;;31.17;;
40707;SDS011;26392;42.696;23.350;2022-11-15T09:03:25;81.53;;;32.20;;
40707;SDS011;26392;42.696;23.350;2022-11-15T09:05:57;82.80;;;32.45;;
40707;SDS011;26392;42.696;23.350;2022-11-15T09:08:23;88.47;;;32.60;;
40707;SDS011;26392;42.696;23.350;2022-11-15T09:10:49;82.32;;;33.78;;
40707;SDS011;26392;42.696;23.350;2022-11-15T09:13:15;96.97;;;33.83;;
40707;SDS011;26392;42.696;23.350;2022-11-15T09:15:41;97.53;;;35.20;;
40707;SDS011;26392;42.696;23.350;2022-11-15T09:18:06;92.40;;;34.75;;
40707;SDS011;26392;42.696;23.350;2022-11-15T09:20:32;91.50;;;32.22;;
40707;SDS011;26392;42.696;23.350;2022-11-15T09:23:01;98.20;;;34.13;;
40707;SDS011;26392;42.696;23.350;2022-11-15T09:25:28;97.45;;;34.13;;
40707;SDS011;26392;42.696;23.350;2022-11-15T09:27:54;92.22;;;33.95;;
40707;SDS011;26392;42.696;23.350;2022-11-15T09:30:19;111.80;;;36.17;;
40707;SDS011;26392;42.696;23.350;2022-11-15T09:32:45;95.03;;;34.42;;
40707;SDS011;26392;42.696;23.350;2022-11-15T09:35:10;109.20;;;36.75;;
40707;SDS011;26392;42.696;23.350;2022-11-15T09:37:36;107.53;;;34.58;;
40707;SDS011;26392;42.696;23.350;2022-11-15T09:40:01;106.20;;;37.17;;
40707;SDS011;26392;42.696;23.350;2022-11-15T09:48:03;111.10;;;37.35;;
40707;SDS011;26392;42.696;23.350;2022-11-15T09:50:50;108.68;;;37.97;;
40707;SDS011;26392;42.696;23.350;2022-11-15T09:53:39;104.35;;;36.92;;
40707;SDS011;26392;42.696;23.350;2022-11-15T09:56:19;105.43;;;37.53;;
40707;SDS011;26392;42.696;23.350;2022-11-15T10:01:36;114.47;;;39.78;;
40707;SDS011;26392;42.696;23.350;2022-11-15T10:04:03;108.55;;;37.63;;
40707;SDS011;26392;42.696;23.350;2022-11-15T10:06:28;116.63;;;40.88;;
40707;SDS011;26392;42.696;23.350;2022-11-15T10:11:25;113.68;;;38.85;;
40707;SDS011;26392;42.696;23.350;2022-11-15T10:13:57;119.65;;;39.72;;
40707;SDS011;26392;42.696;23.350;2022-11-15T10:19:09;107.93;;;39.15;;
40707;SDS011;26392;42.696;23.350;2022-11-15T10:24:42;112.40;;;39.78;;
40707;SDS011;26392;42.696;23.350;2022-11-15T10:27:13;107.97;;;40.38;;
40707;SDS011;26392;42.696;23.350;2022-11-15T10:29:44;114.80;;;41.35;;
40707;SDS011;26392;42.696;23.350;2022-11-15T10:32:14;118.05;;;41.20;;
40707;SDS011;26392;42.696;23.350;2022-11-15T10:34:44;119.18;;;43.00;;
40707;SDS011;26392;42.696;23.350;2022-11-15T10:37:10;118.50;;;42.97;;
40707;SDS011;26392;42.696;23.350;2022-11-15T10:39:36;112.43;;;42.78;;
40707;SDS011;26392;42.696;23.350;2022-11-15T10:42:17;124.57;;;44.30;;
40707;SDS011;26392;42.696;23.350;2022-11-15T10:44:50;127.18;;;45.80;;
40707;SDS011;26392;42.696;23.350;2022-11-15T10:47:29;128.35;;;45.42;;
40707;SDS011;26392;42.696;23.350;2022-11-15T10:50:00;126.47;;;46.70;;
40707;SDS011;26392;42.696;23.350;2022-11-15T10:52:31;132.07;;;48.72;;
40707;SDS011;26392;42.696;23.350;2022-11-15T10:57:31;134.85;;;49.85;;
40707;SDS011;26392;42.696;23.350;2022-11-15T11:00:26;135.98;;;49.70;;
40707;SDS011;26392;42.696;23.350;2022-11-15T11:02:58;137.52;;;48.80;;
40707;SDS011;26392;42.696;23.350;2022-11-15T11:08:02;111.53;;;44.38;;
40707;SDS011;26392;42.696;23.350;2022-11-15T11:10:28;125.80;;;46.70;;
40707;SDS011;26392;42.696;23.350;2022-11-15T11:12:53;110.57;;;42.58;;
40707;SDS011;26392;42.696;23.350;2022-11-15T11:15:19;110.93;;;41.88;;
40707;SDS011;26392;42.696;23.350;2022-11-15T11:20:33;98.90;;;37.92;;
40707;SDS011;26392;42.696;23.350;2022-11-15T11:25:52;90.13;;;36.58;;
40707;SDS011;26392;42.696;23.350;2022-11-15T11:31:10;98.45;;;39.20;;
40707;SDS011;26392;42.696;23.350;2022-11-15T11:36:29;100.97;;;38.13;;
40707;SDS011;26392;42.696;23.350;2022-11-15T11:39:31;107.22;;;38.45;;
40707;SDS011;26392;42.696;23.350;2022-11-15T11:45:36;101.50;;;38.10;;
40707;SDS011;26392;42.696;23.350;2022-11-15T11:48:13;96.25;;;37.75;;
40707;SDS011;26392;42.696;23.350;2022-11-15T11:50:45;95.35;;;38.15;;
40707;SDS011;26392;42.696;23.350;2022-11-15T11:53:15;95.10;;;38.25;;
40707;SDS011;26392;42.696;23.350;2022-11-15T11:55:53;97.70;;;39.20;;
40707;SDS011;26392;42.696;23.350;2022-11-15T11:58:29;98.00;;;36.97;;
40707;SDS011;26392;42.696;23.350;2022-11-15T12:01:02;98.25;;;39.33;;
40707;SDS011;26392;42.696;23.350;2022-11-15T12:03:38;100.22;;;39.65;;
40707;SDS011;26392;42.696;23.350;2022-11-15T12:11:38;88.13;;;37.35;;
40707;SDS011;26392;42.696;23.350;2022-11-15T12:14:29;86.70;;;36.40;;
40707;SDS011;26392;42.696;23.350;2022-11-15T12:17:26;95.70;;;37.40;;
40707;SDS011;26392;42.696;23.350;2022-11-15T12:19:57;94.78;;;37.13;;
40707;SDS011;26392;42.696;23.350;2022-11-15T12:22:36;86.00;;;35.78;;
40707;SDS011;26392;42.696;23.350;2022-11-15T12:27:42;110.18;;;40.70;;
40707;SDS011;26392;42.696;23.350;2022-11-15T12:30:19;99.82;;;38.58;;
40707;SDS011;26392;42.696;23.350;2022-11-15T12:32:58;100.55;;;38.90;;
40707;SDS011;26392;42.696;23.350;2022-11-15T12:37:54;95.68;;;37.75;;
40707;SDS011;26392;42.696;23.350;2022-11-15T12:40:21;94.82;;;38.30;;
40707;SDS011;26392;42.696;23.350;2022-11-15T12:45:37;85.22;;;35.83;;
40707;SDS011;26392;42.696;23.350;2022-11-15T12:48:44;87.88;;;36.33;;
40707;SDS011;26392;42.696;23.350;2022-11-15T12:50:59;90.68;;;36.95;;
40707;SDS011;26392;42.696;23.350;2022-11-15T12:53:26;88.82;;;36.40;;
40707;SDS011;26392;42.696;23.350;2022-11-15T12:56:09;95.60;;;38.85;;
40707;SDS011;26392;42.696;23.350;2022-11-15T13:06:44;93.15;;;38.22;;
40707;SDS011;26392;42.696;23.350;2022-11-15T13:11:57;97.55;;;38.85;;
40707;SDS011;26392;42.696;23.350;2022-11-15T13:14:47;96.93;;;39.63;;
40707;SDS011;26392;42.696;23.350;2022-11-15T13:22:38;86.43;;;36.13;;
40707;SDS011;26392;42.696;23.350;2022-11-15T13:25:18;87.25;;;33.90;;
40707;SDS011;26392;42.696;23.350;2022-11-15T13:27:45;93.28;;;37.35;;
40707;SDS011;26392;42.696;23.350;2022-11-15T13:30:25;92.15;;;37.72;;
40707;SDS011;26392;42.696;23.350;2022-11-15T13:32:52;95.25;;;37.17;;
40707;SDS011;26392;42.696;23.350;2022-11-15T13:35:22;86.45;;;36.78;;
40707;SDS011;26392;42.696;23.350;2022-11-15T13:37:49;88.50;;;35.28;;
40707;SDS011;26392;42.696;23.350;2022-11-15T13:42:45;85.57;;;35.35;;
40707;SDS011;26392;42.696;23.350;2022-11-15T13:45:12;87.80;;;36.83;;
40707;SDS011;26392;42.696;23.350;2022-11-15T13:47:40;93.13;;;36.03;;
40707;SDS011;26392;42.696;23.350;2022-11-15T13:50:06;84.13;;;36.38;;
40707;SDS011;26392;42.696;23.350;2022-11-15T13:52:35;90.43;;;36.85;;
40707;SDS011;26392;42.696;23.350;2022-11-15T13:55:12;96.65;;;36.05;;
40707;SDS011;26392;42.696;23.350;2022-11-15T14:00:36;83.32;;;35.22;;
40707;SDS011;26392;42.696;23.350;2022-11-15T14:03:12;82.78;;;34.88;;
40707;SDS011;26392;42.696;23.350;2022-11-15T14:05:43;90.28;;;35.72;;
40707;SDS011;26392;42.696;23.350;2022-11-15T14:08:27;78.70;;;35.33;;
40707;SDS011;26392;42.696;23.350;2022-11-15T14:11:06;87.15;;;36.15;;
40707;SDS011;26392;42.696;23.350;2022-11-15T14:13:42;80.00;;;34.22;;
40707;SDS011;26392;42.696;23.350;2022-11-15T14:16:39;78.70;;;32.70;;
40707;SDS011;26392;42.696;23.350;2022-11-15T14:24:35;104.28;;;41.88;;
40707;SDS011;26392;42.696;23.350;2022-11-15T14:29:45;107.00;;;42.30;;
40707;SDS011;26392;42.696;23.350;2022-11-15T14:32:15;118.28;;;45.40;;
40707;SDS011;26392;42.696;23.350;2022-11-15T14:34:56;116.60;;;46.08;;
40707;SDS011;26392;42.696;23.350;2022-11-15T14:39:52;116.45;;;48.03;;
40707;SDS011;26392;42.696;23.350;2022-11-15T14:42:19;119.03;;;46.30;;
40707;SDS011;26392;42.696;23.350;2022-11-15T14:44:45;113.30;;;45.85;;
40707;SDS011;26392;42.696;23.350;2022-11-15T14:47:11;110.93;;;44.72;;
40707;SDS011;26392;42.696;23.350;2022-11-15T14:49:36;108.30;;;41.67;;
40707;SDS011;26392;42.696;23.350;2022-11-15T14:52:02;103.88;;;41.42;;
40707;SDS011;26392;42.696;23.350;2022-11-15T14:54:29;95.75;;;41.25;;
40707;SDS011;26392;42.696;23.350;2022-11-15T14:56:54;109.75;;;41.97;;
40707;SDS011;26392;42.696;23.350;2022-11-15T14:59:20;103.38;;;40.97;;
40707;SDS011;26392;42.696;23.350;2022-11-15T15:01:45;111.72;;;42.13;;
40707;SDS011;26392;42.696;23.350;2022-11-15T15:04:10;117.82;;;44.15;;
40707;SDS011;26392;42.696;23.350;2022-11-15T15:06:36;103.00;;;41.17;;
40707;SDS011;26392;42.696;23.350;2022-11-15T15:09:02;102.80;;;39.83;;
40707;SDS011;26392;42.696;23.350;2022-11-15T15:11:30;98.50;;;40.70;;
40707;SDS011;26392;42.696;23.350;2022-11-15T15:13:56;99.65;;;39.38;;
40707;SDS011;26392;42.696;23.350;2022-11-15T15:16:25;97.95;;;38.25;;
40707;SDS011;26392;42.696;23.350;2022-11-15T15:18:50;102.30;;;39.58;;
40707;SDS011;26392;42.696;23.350;2022-11-15T15:21:20;96.75;;;39.92;;
40707;SDS011;26392;42.696;23.350;2022-11-15T15:23:49;109.95;;;41.90;;
40707;SDS011;26392;42.696;23.350;2022-11-15T15:26:14;112.40;;;42.13;;
40707;SDS011;26392;42.696;23.350;2022-11-15T15:28:40;121.80;;;46.75;;
40707;SDS011;26392;42.696;23.350;2022-11-15T15:31:05;113.88;;;44.15;;
40707;SDS011;26392;42.696;23.350;2022-11-15T15:33:31;114.30;;;45.75;;
40707;SDS011;26392;42.696;23.350;2022-11-15T15:35:57;109.30;;;41.45;;
40707;SDS011;26392;42.696;23.350;2022-11-15T15:38:24;110.82;;;44.17;;
40707;SDS011;26392;42.696;23.350;2022-11-15T15:40:49;105.63;;;41.03;;
40707;SDS011;26392;42.696;23.350;2022-11-15T15:43:15;110.18;;;41.53;;
40707;SDS011;26392;42.696;23.350;2022-11-15T15:45:40;118.15;;;41.63;;
40707;SDS011;26392;42.696;23.350;2022-11-15T15:48:13;97.45;;;39.05;;
40707;SDS011;26392;42.696;23.350;2022-11-15T15:50:40;104.35;;;40.55;;
40707;SDS011;26392;42.696;23.350;2022-11-15T15:53:08;112.15;;;40.95;;
40707;SDS011;26392;42.696;23.350;2022-11-15T15:55:35;112.40;;;42.38;;
40707;SDS011;26392;42.696;23.350;2022-11-15T15:58:01;122.13;;;41.42;;
40707;SDS011;26392;42.696;23.350;2022-11-15T16:00:27;110.32;;;42.67;;